DGPHX EDML-EDML

Flight info

Callsign DGPHX
Flight time 0h 28m
Altitude 5000
Route /
Aircraft DA62/L-V/N

Departure

Time 2026-04-16 15:45
Airport Landshut Airfield (EDML)

Arrival

Time 2026-04-16 16:14
Airport Landshut Airfield (EDML)
Time Latitude Longitude Altitude Speed Heading
2026-04-16 15:44 48.51330 12.03589 1319 ft 0 kts 166°
2026-04-16 15:44 48.51321 12.03594 1320 ft 7 kts 144°
2026-04-16 15:44 48.51259 12.03594 1322 ft 11 kts 203°
2026-04-16 15:45 48.51162 12.03339 1319 ft 58 kts 246°
2026-04-16 15:45 48.50952 12.02610 1505 ft 76 kts 246°
2026-04-16 15:45 48.50685 12.01799 1591 ft 108 kts 244°
2026-04-16 15:45 48.50340 12.00821 2057 ft 95 kts 239°
2026-04-16 15:46 48.49996 11.99881 2274 ft 112 kts 239°
2026-04-16 15:46 48.49517 11.98835 2368 ft 134 kts 236°
2026-04-16 15:46 48.48961 11.97583 2421 ft 151 kts 237°
2026-04-16 15:46 48.48394 11.96196 2504 ft 160 kts 243°
2026-04-16 15:47 48.48043 11.94575 2560 ft 166 kts 255°
2026-04-16 15:47 48.47740 11.92850 2564 ft 173 kts 255°
2026-04-16 15:47 48.47429 11.91074 2563 ft 176 kts 255°
2026-04-16 15:47 48.47123 11.89329 2503 ft 171 kts 255°
2026-04-16 15:48 48.46819 11.87606 2459 ft 167 kts 255°
2026-04-16 15:48 48.46532 11.85983 2453 ft 154 kts 255°
2026-04-16 15:48 48.46405 11.84449 2448 ft 146 kts 283°
2026-04-16 15:48 48.47013 11.83302 2445 ft 143 kts 330°
2026-04-16 15:49 48.47968 11.82969 2443 ft 141 kts 352°
2026-04-16 15:49 48.48931 11.82780 2443 ft 138 kts 352°
2026-04-16 15:49 48.49862 11.82586 2443 ft 136 kts 351°
2026-04-16 15:49 48.50715 11.82076 2441 ft 134 kts 312°
2026-04-16 15:50 48.50935 11.80785 2449 ft 132 kts 256°
2026-04-16 15:50 48.50337 11.79813 2447 ft 132 kts 199°
2026-04-16 15:50 48.49421 11.79741 2448 ft 133 kts 178°
2026-04-16 15:50 48.48496 11.79801 2452 ft 133 kts 178°
2026-04-16 15:51 48.47566 11.79865 2454 ft 133 kts 178°
2026-04-16 15:51 48.46639 11.79950 2452 ft 134 kts 173°
2026-04-16 15:51 48.45735 11.80307 2453 ft 135 kts 164°
2026-04-16 15:51 48.44833 11.80707 2450 ft 135 kts 164°
2026-04-16 15:52 48.43933 11.81110 2449 ft 135 kts 164°
2026-04-16 15:52 48.43033 11.81512 2448 ft 135 kts 164°
2026-04-16 15:52 48.42139 11.81910 2448 ft 134 kts 164°
2026-04-16 15:52 48.41243 11.82294 2451 ft 134 kts 168°
2026-04-16 15:53 48.40319 11.82423 2450 ft 133 kts 178°
2026-04-16 15:53 48.39393 11.82486 2448 ft 133 kts 178°
2026-04-16 15:53 48.38465 11.82550 2447 ft 134 kts 178°
2026-04-16 15:53 48.37538 11.82636 2446 ft 133 kts 177°
2026-04-16 15:54 48.36615 11.82724 2447 ft 133 kts 177°
2026-04-16 15:54 48.35688 11.82811 2448 ft 134 kts 177°
2026-04-16 15:54 48.34760 11.82898 2448 ft 134 kts 177°
2026-04-16 15:54 48.33834 11.82869 2444 ft 133 kts 199°
2026-04-16 15:55 48.33019 11.82259 2452 ft 132 kts 211°
2026-04-16 15:55 48.32223 11.81556 2447 ft 132 kts 211°
2026-04-16 15:55 48.31430 11.80854 2449 ft 133 kts 211°
2026-04-16 15:55 48.30623 11.80174 2444 ft 133 kts 201°
2026-04-16 15:56 48.29705 11.80044 2447 ft 133 kts 180°
2026-04-16 15:56 48.29094 11.80080 2453 ft 133 kts 178°
2026-04-16 15:56 48.28169 11.80142 2448 ft 133 kts 178°
2026-04-16 15:56 48.27243 11.80205 2449 ft 133 kts 178°
2026-04-16 15:57 48.26316 11.80267 2449 ft 134 kts 178°
2026-04-16 15:57 48.25381 11.80330 2451 ft 135 kts 178°
2026-04-16 15:57 48.24440 11.80393 2449 ft 136 kts 178°
2026-04-16 15:57 48.23499 11.80520 2447 ft 137 kts 162°
2026-04-16 15:58 48.22917 11.81407 2434 ft 105 kts 99°
2026-04-16 15:58 48.23229 11.82168 2465 ft 100 kts 11°
2026-04-16 15:58 48.24034 11.82020 2464 ft 134 kts 341°
2026-04-16 15:58 48.24931 11.81398 2460 ft 144 kts 332°
2026-04-16 15:59 48.26742 11.80413 2453 ft 141 kts 360°
2026-04-16 15:59 48.27715 11.80309 2453 ft 140 kts 353°
2026-04-16 15:59 48.28695 11.80154 2458 ft 143 kts 353°
2026-04-16 16:00 48.29687 11.79999 2459 ft 144 kts 353°
2026-04-16 16:00 48.30692 11.79882 2457 ft 145 kts 356°
2026-04-16 16:00 48.31681 11.79802 2446 ft 131 kts 353°
2026-04-16 16:00 48.32300 11.79173 2442 ft 100 kts 287°
2026-04-16 16:01 48.32080 11.78364 2446 ft 87 kts 200°
2026-04-16 16:01 48.31513 11.78493 2451 ft 88 kts 132°
2026-04-16 16:01 48.31380 11.79401 2462 ft 95 kts 97°
2026-04-16 16:01 48.31417 11.80458 2468 ft 115 kts 83°
2026-04-16 16:02 48.31504 11.81838 2393 ft 150 kts 84°
2026-04-16 16:02 48.31613 11.83517 2281 ft 171 kts 84°
2026-04-16 16:02 48.31732 11.85340 2262 ft 178 kts 84°
2026-04-16 16:02 48.31854 11.87183 2263 ft 180 kts 84°
2026-04-16 16:03 48.31973 11.89009 2260 ft 171 kts 84°
2026-04-16 16:03 48.32088 11.90761 2258 ft 166 kts 84°
2026-04-16 16:03 48.32200 11.92467 2257 ft 162 kts 84°
2026-04-16 16:03 48.32507 11.94078 2248 ft 167 kts 54°
2026-04-16 16:04 48.33494 11.94993 2245 ft 173 kts
2026-04-16 16:04 48.34694 11.94876 2246 ft 175 kts 350°
2026-04-16 16:04 48.35809 11.94177 2253 ft 177 kts 313°
2026-04-16 16:04 48.36062 11.92507 2337 ft 174 kts 263°
2026-04-16 16:05 48.35762 11.90704 2261 ft 180 kts 248°
2026-04-16 16:05 48.35284 11.88960 2259 ft 180 kts 251°
2026-04-16 16:05 48.34975 11.87110 2153 ft 185 kts 259°
2026-04-16 16:05 48.34758 11.85201 2075 ft 186 kts 261°
2026-04-16 16:06 48.34629 11.83247 1938 ft 189 kts 266°
2026-04-16 16:06 48.34529 11.81232 1580 ft 200 kts 262°
2026-04-16 16:06 48.34384 11.79206 1510 ft 194 kts 265°
2026-04-16 16:06 48.34229 11.77234 1494 ft 188 kts 263°
2026-04-16 16:07 48.34084 11.75311 1534 ft 182 kts 263°
2026-04-16 16:07 48.33942 11.73655 2231 ft 142 kts 262°
2026-04-16 16:07 48.33832 11.72154 2432 ft 147 kts 264°
2026-04-16 16:07 48.33960 11.70692 2692 ft 147 kts 303°
2026-04-16 16:08 48.34913 11.70063 2678 ft 165 kts
2026-04-16 16:08 48.36077 11.70420 2601 ft 178 kts 12°
2026-04-16 16:08 48.37262 11.70849 2746 ft 174 kts 13°
2026-04-16 16:08 48.38455 11.71293 2746 ft 178 kts 13°
2026-04-16 16:09 48.39667 11.71745 2749 ft 181 kts 13°
2026-04-16 16:09 48.40880 11.72293 2743 ft 183 kts 27°
2026-04-16 16:09 48.41882 11.73478 2745 ft 184 kts 43°
2026-04-16 16:09 48.42802 11.74833 2746 ft 185 kts 44°
2026-04-16 16:10 48.43715 11.76196 2746 ft 185 kts 44°
2026-04-16 16:10 48.44629 11.77560 2745 ft 185 kts 44°
2026-04-16 16:10 48.45543 11.78925 2746 ft 185 kts 44°
2026-04-16 16:10 48.46460 11.80293 2745 ft 186 kts 44°
2026-04-16 16:11 48.47350 11.81664 2742 ft 186 kts 51°
2026-04-16 16:11 48.47747 11.83489 2747 ft 186 kts 86°
2026-04-16 16:11 48.48070 11.85375 2744 ft 186 kts 70°
2026-04-16 16:11 48.48441 11.87242 2745 ft 186 kts 75°
2026-04-16 16:12 48.48767 11.89130 2744 ft 186 kts 75°
2026-04-16 16:12 48.49067 11.91027 2743 ft 186 kts 81°
2026-04-16 16:12 48.49178 11.92968 2746 ft 186 kts 86°
2026-04-16 16:12 48.49261 11.94915 2745 ft 186 kts 86°
2026-04-16 16:13 48.49445 11.96851 2649 ft 191 kts 75°
2026-04-16 16:13 48.49849 11.98762 2224 ft 197 kts 69°
2026-04-16 16:13 48.50329 12.00472 1715 ft 151 kts 64°
2026-04-16 16:13 48.50683 12.01680 1562 ft 102 kts 66°
2026-04-16 16:14 48.50942 12.02581 1345 ft 86 kts 65°
2026-04-16 16:14 48.51126 12.03202 1317 ft 37 kts 65°
2026-04-16 16:14 48.51198 12.03329 1318 ft 11 kts 346°
2026-04-16 16:14 48.51268 12.03525 1321 ft 47 kts 68°
2026-04-16 16:15 48.51330 12.03652 1319 ft 4 kts 27°